Time;durP1;ratioP1;P1;durP2;ratioP2;P2;SDS_P1;SDS_P2;PMS_P1;PMS_P2;Temp;Humidity;BMP_temperature;BMP_pressure;BME280_temperature;BME280_humidity;BME280_pressure;Samples;Min_cycle;Max_cycle;Signal;HPM_P1;HPM_P2
2023/05/21 00:00:28;;;;;;;11.10;8.90;;;;;;;15.30;86.88;98980.17;105448;1258;98345;-62
2023/05/21 00:02:56;;;;;;;11.60;8.50;;;;;;;15.31;86.86;98979.19;104996;1260;99173;-61
2023/05/21 00:05:24;;;;;;;13.50;9.90;;;;;;;15.32;86.81;98973.96;104972;1262;98418;-62
2023/05/21 00:07:53;;;;;;;11.40;8.80;;;;;;;15.33;86.99;98975.73;105217;1266;99122;-62
2023/05/21 00:10:21;;;;;;;11.40;9.10;;;;;;;15.32;87.02;98971.52;105090;1264;99141;-62
2023/05/21 00:12:48;;;;;;;11.80;9.20;;;;;;;15.30;86.97;98970.71;105104;1266;97911;-65
2023/05/21 00:15:15;;;;;;;10.30;8.90;;;;;;;15.28;87.17;98973.55;105061;1254;99078;-66
2023/05/21 00:17:42;;;;;;;11.20;9.20;;;;;;;15.26;87.23;98969.88;105183;1260;97906;-61
2023/05/21 00:20:10;;;;;;;13.20;9.80;;;;;;;15.23;87.59;98973.29;105239;1260;98001;-62
2023/05/21 00:22:37;;;;;;;14.80;9.80;;;;;;;15.20;87.59;98972.71;105134;1269;98817;-62
2023/05/21 00:25:05;;;;;;;9.40;8.00;;;;;;;15.18;87.92;98969.89;105105;1266;98411;-62
2023/05/21 00:27:32;;;;;;;11.40;7.90;;;;;;;15.17;87.83;98972.39;105120;1257;99218;-62
2023/05/21 00:29:59;;;;;;;13.20;9.10;;;;;;;15.18;87.77;98970.52;105091;1268;97909;-62
2023/05/21 00:32:26;;;;;;;12.10;9.40;;;;;;;15.18;87.81;98969.36;105199;1269;98411;-62
2023/05/21 00:34:53;;;;;;;21.90;10.60;;;;;;;15.17;88.02;98968.30;105153;1260;97885;-62
2023/05/21 00:37:23;;;;;;;12.40;9.50;;;;;;;15.15;88.28;98970.65;105183;1257;97896;-63
2023/05/21 00:39:50;;;;;;;13.70;9.50;;;;;;;15.10;88.75;98963.22;104905;1262;98014;-62
2023/05/21 00:42:17;;;;;;;13.50;10.30;;;;;;;15.07;89.05;98962.38;104951;1270;98098;-62
2023/05/21 00:44:44;;;;;;;13.50;10.00;;;;;;;15.03;89.17;98959.11;105073;1257;98791;-62
2023/05/21 00:47:12;;;;;;;12.20;8.80;;;;;;;14.99;89.64;98957.29;105069;1264;98001;-62
2023/05/21 00:49:40;;;;;;;11.20;9.50;;;;;;;14.99;89.68;98954.44;105152;1267;97918;-62
2023/05/21 00:52:07;;;;;;;12.50;9.20;;;;;;;14.99;89.37;98952.88;105189;1256;97979;-62
2023/05/21 00:54:34;;;;;;;11.40;9.60;;;;;;;14.98;89.76;98952.82;105112;1267;98001;-62
2023/05/21 00:57:03;;;;;;;12.80;9.70;;;;;;;14.96;89.68;98949.25;105183;1269;98453;-62
2023/05/21 00:59:31;;;;;;;12.90;9.80;;;;;;;14.95;89.76;98949.02;105140;1260;97931;-63
2023/05/21 01:02:03;;;;;;;13.50;9.10;;;;;;;14.95;89.69;98947.52;104882;1264;107631;-62
2023/05/21 01:04:30;;;;;;;9.60;7.10;;;;;;;14.94;90.04;98944.86;105045;1268;97886;-62
2023/05/21 01:06:58;;;;;;;13.90;9.60;;;;;;;14.93;90.21;98946.56;105094;1261;98477;-62
2023/05/21 01:09:26;;;;;;;14.50;10.30;;;;;;;14.90;90.35;98945.77;105172;1257;99192;-62
2023/05/21 01:11:55;;;;;;;13.00;10.30;;;;;;;14.86;90.77;98945.06;105068;1263;99002;-63
2023/05/21 01:14:23;;;;;;;13.30;9.30;;;;;;;14.83;90.96;98941.21;105028;1260;107674;-63
2023/05/21 01:16:52;;;;;;;14.90;10.70;;;;;;;14.81;91.02;98942.48;105091;1267;99100;-63
2023/05/21 01:19:22;;;;;;;13.40;10.20;;;;;;;14.79;91.00;98937.70;105042;1260;98705;-63
2023/05/21 01:21:52;;;;;;;14.60;10.50;;;;;;;14.80;91.22;98936.30;105110;1259;111491;-63
2023/05/21 01:24:19;;;;;;;13.10;10.60;;;;;;;14.81;91.51;98932.01;104980;1264;99403;-63
2023/05/21 01:26:47;;;;;;;14.10;9.90;;;;;;;14.82;91.24;98934.57;105216;1266;97918;-63
2023/05/21 01:29:14;;;;;;;12.60;10.60;;;;;;;14.83;91.18;98930.20;104978;1257;97991;-63
2023/05/21 01:31:54;;;;;;;12.00;10.00;;;;;;;14.85;91.29;98929.41;105085;1266;98818;-63
2023/05/21 01:34:29;;;;;;;11.30;7.60;;;;;;;14.83;91.65;98932.34;104633;1273;111844;-62
2023/05/21 01:37:07;;;;;;;16.50;10.90;;;;;;;14.79;92.29;98926.98;105172;1258;98816;-66
2023/05/21 01:39:39;;;;;;;14.20;10.50;;;;;;;14.79;92.22;98928.94;105033;1276;108226;-68
2023/05/21 01:42:09;;;;;;;13.10;9.80;;;;;;;14.80;92.19;98927.02;105167;1264;97912;-62
2023/05/21 01:44:38;;;;;;;15.00;11.70;;;;;;;14.81;92.34;98925.94;105209;1258;99202;-63
2023/05/21 01:47:05;;;;;;;15.20;10.70;;;;;;;14.78;92.61;98923.81;105228;1257;112008;-61
2023/05/21 01:49:33;;;;;;;15.50;11.90;;;;;;;14.79;92.60;98922.26;104954;1261;99174;-62
2023/05/21 01:52:01;;;;;;;15.70;11.70;;;;;;;14.80;92.47;98921.17;105195;1266;97927;-61
2023/05/21 01:54:28;;;;;;;16.80;11.80;;;;;;;14.80;92.83;98923.93;105136;1260;98525;-62
2023/05/21 01:56:55;;;;;;;13.80;10.00;;;;;;;14.77;92.77;98922.20;105205;1268;97914;-62
2023/05/21 01:59:22;;;;;;;14.90;10.30;;;;;;;14.74;92.94;98920.15;105213;1265;97890;-62
2023/05/21 02:01:49;;;;;;;14.60;11.30;;;;;;;14.69;93.39;98918.14;105237;1255;97822;-62
2023/05/21 02:04:17;;;;;;;14.60;11.50;;;;;;;14.65;93.47;98915.28;105219;1257;97889;-62
2023/05/21 02:06:43;;;;;;;15.00;11.20;;;;;;;14.61;93.65;98913.20;105113;1258;98784;-62
2023/05/21 02:09:11;;;;;;;13.70;10.40;;;;;;;14.60;93.53;98913.45;105158;1267;98002;-62
2023/05/21 02:11:38;;;;;;;17.50;11.70;;;;;;;14.58;93.62;98912.38;105117;1260;98096;-62
2023/05/21 02:14:05;;;;;;;14.70;11.10;;;;;;;14.56;93.86;98910.64;105189;1267;98317;-62
2023/05/21 02:16:32;;;;;;;11.90;8.90;;;;;;;14.53;93.98;98908.32;105259;1276;97890;-62
2023/05/21 02:18:59;;;;;;;16.80;11.00;;;;;;;14.50;94.35;98906.39;105206;1267;99087;-62
2023/05/21 02:21:26;;;;;;;15.90;11.50;;;;;;;14.48;94.32;98906.08;105189;1260;97940;-62
2023/05/21 02:23:53;;;;;;;16.90;11.80;;;;;;;14.47;94.19;98903.16;105188;1267;97885;-62
2023/05/21 02:26:21;;;;;;;16.50;11.90;;;;;;;14.44;94.42;98905.28;105168;1261;97969;-62
2023/05/21 02:28:48;;;;;;;15.50;10.10;;;;;;;14.40;94.83;98906.25;105209;1267;99195;-62
2023/05/21 02:31:15;;;;;;;16.50;11.40;;;;;;;14.37;95.19;98904.77;105228;1260;97925;-62
2023/05/21 02:33:42;;;;;;;17.50;13.00;;;;;;;14.33;95.66;98904.05;105094;1256;98092;-62
2023/05/21 02:36:11;;;;;;;15.90;12.10;;;;;;;14.30;95.53;98900.58;104974;1266;98810;-63
2023/05/21 02:38:43;;;;;;;17.90;12.80;;;;;;;14.27;95.87;98899.90;104959;1258;108103;-63
2023/05/21 02:41:12;;;;;;;18.20;12.90;;;;;;;14.24;96.21;98897.00;104935;1264;99225;-61
2023/05/21 02:43:39;;;;;;;17.20;13.10;;;;;;;14.21;96.37;98896.05;105048;1267;98676;-61
2023/05/21 02:46:07;;;;;;;18.60;13.20;;;;;;;14.19;96.46;98896.90;105067;1261;98016;-62
2023/05/21 02:48:34;;;;;;;17.70;12.50;;;;;;;14.18;96.37;98894.10;105187;1267;98787;-62
2023/05/21 02:51:01;;;;;;;15.70;11.90;;;;;;;14.17;96.88;98884.00;105076;1260;97909;-62
2023/05/21 02:53:28;;;;;;;16.70;12.10;;;;;;;14.16;97.43;98883.39;105147;1266;99199;-62
2023/05/21 02:55:55;;;;;;;16.40;12.20;;;;;;;14.18;97.08;98886.71;104999;1267;98111;-61
2023/05/21 02:58:24;;;;;;;16.90;12.20;;;;;;;14.20;97.11;98889.91;105039;1257;99237;-63
2023/05/21 03:00:52;;;;;;;16.70;11.30;;;;;;;14.20;97.19;98887.00;105074;1264;97911;-66
2023/05/21 03:03:19;;;;;;;16.40;10.20;;;;;;;14.18;97.36;98886.33;105180;1276;106947;-67
2023/05/21 03:05:47;;;;;;;15.00;11.20;;;;;;;14.18;97.64;98883.02;105184;1260;99191;-63
2023/05/21 03:08:14;;;;;;;13.90;11.60;;;;;;;14.18;97.62;98886.95;105292;1257;97928;-62
2023/05/21 03:10:42;;;;;;;16.00;11.20;;;;;;;14.20;97.32;98889.46;105165;1269;98682;-62
2023/05/21 03:13:13;;;;;;;18.10;11.30;;;;;;;14.22;96.96;98887.73;105250;1260;97908;-62
2023/05/21 03:15:43;;;;;;;17.80;11.90;;;;;;;14.22;97.47;98891.60;105171;1276;108545;-62
2023/05/21 03:18:10;;;;;;;15.70;12.40;;;;;;;14.21;97.51;98893.23;105212;1257;97907;-62
2023/05/21 03:20:42;;;;;;;13.20;8.80;;;;;;;14.21;97.78;98895.81;105238;1259;97908;-62
2023/05/21 03:23:11;;;;;;;18.00;12.60;;;;;;;14.18;98.26;98897.81;104969;1263;110739;-63
2023/05/21 03:25:42;;;;;;;16.70;11.60;;;;;;;14.14;99.01;98899.92;105213;1264;99258;-63
2023/05/21 03:28:09;;;;;;;17.50;11.90;;;;;;;14.13;99.01;98898.65;105182;1266;108261;-62
2023/05/21 03:30:37;;;;;;;18.40;13.20;;;;;;;14.14;98.49;98900.10;105141;1260;97905;-62
2023/05/21 03:33:05;;;;;;;19.90;13.30;;;;;;;14.14;98.49;98899.31;105209;1258;98415;-62
2023/05/21 03:35:32;;;;;;;18.20;13.70;;;;;;;14.13;98.69;98900.45;105200;1267;112317;-62
2023/05/21 03:38:00;;;;;;;19.40;12.60;;;;;;;14.14;98.56;98899.69;105215;1267;99116;-63
2023/05/21 03:40:28;;;;;;;18.70;13.40;;;;;;;14.12;99.12;98903.20;104863;1263;109407;-62
2023/05/21 03:42:55;;;;;;;18.50;13.30;;;;;;;14.11;99.14;98899.50;105225;1267;98804;-63
2023/05/21 03:45:22;;;;;;;19.00;13.60;;;;;;;14.11;99.55;98902.35;105018;1260;97979;-64
2023/05/21 03:47:49;;;;;;;16.10;12.80;;;;;;;14.12;99.37;98902.15;105170;1267;97911;-63
2023/05/21 03:50:17;;;;;;;15.90;12.60;;;;;;;14.14;99.20;98902.08;105192;1266;97919;-62
2023/05/21 03:52:44;;;;;;;19.20;13.50;;;;;;;14.16;99.45;98900.27;105201;1267;98428;-62
2023/05/21 03:55:11;;;;;;;18.70;12.00;;;;;;;14.22;99.51;98898.44;105189;1266;97930;-62
2023/05/21 03:57:40;;;;;;;17.60;12.00;;;;;;;14.28;99.21;98899.15;104990;1260;97888;-62
2023/05/21 04:00:08;;;;;;;15.20;12.40;;;;;;;14.37;98.91;98902.18;104976;1269;111308;-62
2023/05/21 04:02:35;;;;;;;17.20;12.30;;;;;;;14.45;98.51;98896.33;105177;1260;99090;-62
2023/05/21 04:05:03;;;;;;;17.70;11.70;;;;;;;14.52;98.29;98892.37;105198;1267;97927;-62
2023/05/21 04:07:31;;;;;;;16.30;11.90;;;;;;;14.60;97.76;98892.89;104973;1272;99231;-61
2023/05/21 04:09:58;;;;;;;15.80;12.00;;;;;;;14.68;97.53;98891.85;105116;1270;97973;-62
2023/05/21 04:12:25;;;;;;;16.20;12.10;;;;;;;14.77;97.16;98892.09;105254;1266;97918;-62
2023/05/21 04:14:53;;;;;;;15.30;12.20;;;;;;;14.85;96.71;98890.92;105056;1264;97915;-62
2023/05/21 04:17:20;;;;;;;16.60;11.40;;;;;;;14.91;96.41;98895.26;105028;1267;98032;-62
2023/05/21 04:19:47;;;;;;;16.40;12.00;;;;;;;15.01;96.09;98892.31;105081;1266;98260;-62
2023/05/21 04:22:14;;;;;;;15.00;11.20;;;;;;;15.08;95.67;98897.21;105227;1261;98349;-62
2023/05/21 04:24:42;;;;;;;15.90;11.80;;;;;;;15.15;95.51;98898.34;105078;1257;99192;-64
2023/05/21 04:27:09;;;;;;;16.60;11.40;;;;;;;15.22;94.95;98900.38;105165;1257;97886;-63
2023/05/21 04:29:36;;;;;;;16.20;11.10;;;;;;;15.27;94.83;98899.32;105195;1260;98008;-62
2023/05/21 04:32:05;;;;;;;16.80;11.60;;;;;;;15.36;94.42;98898.68;105219;1267;98467;-63
2023/05/21 04:34:32;;;;;;;16.10;11.30;;;;;;;15.46;94.55;98903.14;105200;1258;99196;-62
2023/05/21 04:37:01;;;;;;;13.40;10.30;;;;;;;15.58;93.61;98901.58;104926;1275;111436;-62
2023/05/21 04:39:30;;;;;;;16.80;11.60;;;;;;;15.62;92.87;98898.70;105135;1258;99228;-62
2023/05/21 04:41:57;;;;;;;15.50;10.40;;;;;;;15.66;92.75;98899.31;104980;1267;108254;-62
2023/05/21 04:44:24;;;;;;;15.90;11.50;;;;;;;15.74;92.73;98901.38;105054;1259;97914;-62
2023/05/21 04:46:51;;;;;;;16.90;10.20;;;;;;;15.82;92.41;98899.59;105176;1266;97918;-62
2023/05/21 04:49:19;;;;;;;15.90;11.40;;;;;;;15.84;91.76;98899.33;105035;1261;98507;-62
2023/05/21 04:51:48;;;;;;;14.60;11.70;;;;;;;15.89;91.72;98902.43;105168;1271;99080;-62
2023/05/21 04:54:15;;;;;;;14.30;11.00;;;;;;;15.94;91.23;98898.64;105055;1264;108791;-62
2023/05/21 04:56:43;;;;;;;17.10;10.70;;;;;;;16.01;91.29;98902.52;105095;1260;99202;-63
2023/05/21 04:59:10;;;;;;;16.30;11.30;;;;;;;16.07;90.42;98903.60;105207;1266;98319;-62
2023/05/21 05:01:38;;;;;;;13.30;9.00;;;;;;;16.14;90.63;98907.52;105157;1268;112318;-63
2023/05/21 05:04:05;;;;;;;13.40;10.50;;;;;;;16.20;89.98;98906.80;105118;1264;100260;-62
2023/05/21 05:06:32;;;;;;;21.10;10.60;;;;;;;16.29;89.55;98908.33;105099;1267;108813;-62
2023/05/21 05:09:00;;;;;;;15.90;12.20;;;;;;;16.30;89.57;98905.83;105131;1266;97898;-62
2023/05/21 05:11:27;;;;;;;17.10;11.10;;;;;;;16.38;89.21;98906.54;105110;1267;97905;-62
2023/05/21 05:13:54;;;;;;;15.60;11.00;;;;;;;16.41;88.89;98909.27;104838;1260;97960;-63
2023/05/21 05:16:24;;;;;;;14.20;11.00;;;;;;;16.52;88.76;98912.96;105013;1266;98030;-63
2023/05/21 05:18:52;;;;;;;15.00;10.80;;;;;;;16.63;88.58;98909.61;105164;1269;108649;-63
2023/05/21 05:21:21;;;;;;;14.10;10.10;;;;;;;16.76;87.72;98908.64;105239;1254;98525;-63
2023/05/21 05:23:48;;;;;;;12.80;10.50;;;;;;;16.79;86.74;98910.26;105252;1257;98392;-63
2023/05/21 05:26:16;;;;;;;14.90;10.30;;;;;;;16.84;86.69;98910.29;105193;1258;112177;-63
2023/05/21 05:28:54;;;;;;;14.30;10.60;;;;;;;16.87;86.43;98912.50;104690;1261;99588;-63
2023/05/21 05:31:21;;;;;;;13.00;10.00;;;;;;;16.96;86.84;98910.31;105154;1255;98023;-63
2023/05/21 05:33:48;;;;;;;13.20;9.60;;;;;;;17.07;86.42;98912.00;104907;1276;98765;-63
2023/05/21 05:36:15;;;;;;;14.10;10.90;;;;;;;17.14;84.93;98908.71;105048;1268;98424;-63
2023/05/21 05:38:42;;;;;;;12.90;10.30;;;;;;;17.17;84.86;98907.62;105039;1254;97880;-63
2023/05/21 05:41:09;;;;;;;13.10;10.30;;;;;;;17.28;85.18;98907.85;105110;1267;99218;-63
2023/05/21 05:43:36;;;;;;;15.10;10.20;;;;;;;17.46;84.62;98906.59;105069;1258;97940;-68
2023/05/21 05:46:03;;;;;;;14.20;9.30;;;;;;;17.50;83.20;98907.97;105124;1254;98863;-65
2023/05/21 05:48:30;;;;;;;12.90;9.70;;;;;;;17.50;83.27;98910.81;104733;1270;110735;-65
2023/05/21 05:50:57;;;;;;;14.20;10.50;;;;;;;17.59;83.20;98909.54;104986;1255;99195;-64
2023/05/21 05:53:24;;;;;;;13.60;9.00;;;;;;;17.67;82.89;98912.91;105019;1277;98771;-63
2023/05/21 05:55:51;;;;;;;12.90;10.00;;;;;;;17.68;82.07;98913.34;105008;1254;97925;-63
2023/05/21 05:58:18;;;;;;;9.70;7.40;;;;;;;17.76;82.43;98908.95;105206;1257;97930;-63
2023/05/21 06:00:45;;;;;;;12.90;8.90;;;;;;;17.84;81.36;98911.63;105163;1267;97992;-63
2023/05/21 06:03:12;;;;;;;13.60;9.00;;;;;;;17.94;81.39;98911.02;105222;1254;98004;-63
2023/05/21 06:05:40;;;;;;;11.90;9.00;;;;;;;18.02;80.31;98909.14;105255;1260;98048;-64
2023/05/21 06:08:07;;;;;;;13.60;9.40;;;;;;;18.05;79.81;98909.68;105213;1260;99208;-63
2023/05/21 06:10:34;;;;;;;13.00;10.10;;;;;;;18.06;80.08;98904.86;105291;1257;98814;-63
2023/05/21 06:13:01;;;;;;;12.20;7.80;;;;;;;18.14;79.94;98903.33;104866;1263;99022;-63
2023/05/21 06:15:29;;;;;;;11.30;9.40;;;;;;;18.25;79.56;98901.14;105210;1257;98002;-64
2023/05/21 06:17:56;;;;;;;9.90;8.50;;;;;;;18.42;78.96;98897.03;105195;1264;97946;-64
2023/05/21 06:20:23;;;;;;;10.50;8.20;;;;;;;18.47;78.17;98899.44;105171;1266;97883;-64
2023/05/21 06:22:50;;;;;;;9.80;7.70;;;;;;;18.59;76.96;98897.79;105215;1263;97879;-64
2023/05/21 06:25:17;;;;;;;12.20;8.30;;;;;;;18.69;76.90;98893.80;105132;1257;97909;-63
2023/05/21 06:27:44;;;;;;;11.50;8.40;;;;;;;18.83;77.03;98894.77;105151;1257;97908;-63
2023/05/21 06:30:11;;;;;;;11.80;8.10;;;;;;;18.95;76.43;98889.27;105115;1259;97885;-63
2023/05/21 06:32:38;;;;;;;10.30;7.90;;;;;;;19.11;76.47;98892.88;105183;1258;99198;-63
2023/05/21 06:35:06;;;;;;;11.60;8.20;;;;;;;19.30;75.15;98888.24;105363;1254;98004;-64
2023/05/21 06:37:33;;;;;;;10.40;8.40;;;;;;;19.37;74.35;98888.70;104812;1262;166512;-63
2023/05/21 06:40:00;;;;;;;9.10;8.00;;;;;;;19.55;75.26;98882.11;105017;1254;99202;-64
2023/05/21 06:42:27;;;;;;;12.90;7.90;;;;;;;19.80;74.45;98883.98;104919;1260;98268;-64
2023/05/21 06:44:54;;;;;;;10.50;7.90;;;;;;;19.91;72.89;98886.55;105007;1254;97899;-64
2023/05/21 06:47:21;;;;;;;12.90;8.40;;;;;;;19.96;72.89;98883.52;104963;1258;101431;-64
2023/05/21 06:49:48;;;;;;;10.70;7.50;;;;;;;20.05;72.56;98886.24;105077;1266;99103;-64
2023/05/21 06:52:15;;;;;;;9.40;7.60;;;;;;;20.17;71.21;98883.90;105163;1267;97966;-63
2023/05/21 06:54:42;;;;;;;9.40;7.00;;;;;;;20.23;71.18;98881.45;105161;1255;97879;-63
2023/05/21 06:57:09;;;;;;;9.30;7.30;;;;;;;20.24;70.17;98877.00;105138;1267;97947;-63
2023/05/21 06:59:36;;;;;;;10.40;7.80;;;;;;;20.24;70.14;98879.54;105122;1254;108727;-63
2023/05/21 07:02:04;;;;;;;8.90;7.30;;;;;;;20.25;70.12;98880.67;105058;1258;98784;-63
2023/05/21 07:04:33;;;;;;;8.50;7.40;;;;;;;20.40;70.84;98872.14;105070;1254;99218;-63
2023/05/21 07:07:03;;;;;;;9.20;6.90;;;;;;;20.66;70.95;98869.23;104666;1264;111894;-64
2023/05/21 07:09:30;;;;;;;8.50;7.50;;;;;;;20.90;68.20;98878.24;105117;1257;98891;-66
2023/05/21 07:11:57;;;;;;;7.70;6.30;;;;;;;20.97;67.70;98878.08;105173;1257;99202;-63
2023/05/21 07:14:25;;;;;;;7.60;6.10;;;;;;;20.95;66.49;98875.75;105043;1267;97982;-63
2023/05/21 07:16:52;;;;;;;7.80;7.00;;;;;;;21.00;66.34;98876.21;105232;1257;98001;-63
2023/05/21 07:19:20;;;;;;;7.80;6.80;;;;;;;21.12;66.14;98874.98;105194;1254;98268;-63
2023/05/21 07:21:48;;;;;;;8.70;6.40;;;;;;;21.24;66.82;98871.15;105248;1254;97998;-63
2023/05/21 07:24:15;;;;;;;9.10;7.00;;;;;;;21.59;67.27;98872.77;105200;1267;108601;-63
2023/05/21 07:26:42;;;;;;;10.50;6.60;;;;;;;21.97;64.60;98871.63;105067;1271;97944;-63
2023/05/21 07:29:09;;;;;;;7.10;6.10;;;;;;;22.13;64.02;98872.15;105212;1258;97883;-63
2023/05/21 07:31:36;;;;;;;7.80;5.50;;;;;;;22.34;62.95;98870.45;105211;1271;98048;-64
2023/05/21 07:34:03;;;;;;;7.40;6.30;;;;;;;22.45;61.66;98868.92;105240;1258;99192;-63
2023/05/21 07:36:32;;;;;;;7.00;6.00;;;;;;;22.63;62.03;98865.23;105216;1254;97953;-63
2023/05/21 07:38:59;;;;;;;10.50;6.50;;;;;;;22.71;60.74;98861.67;105197;1258;97919;-63
2023/05/21 07:41:26;;;;;;;7.50;6.00;;;;;;;22.76;60.02;98861.61;105207;1254;97965;-63
2023/05/21 07:43:53;;;;;;;8.10;5.50;;;;;;;22.90;59.37;98859.45;105030;1261;97928;-63
2023/05/21 07:46:32;;;;;;;6.00;5.40;;;;;;;23.04;58.58;98857.58;105223;1257;99214;-63
2023/05/21 07:48:59;;;;;;;7.00;5.50;;;;;;;23.12;57.69;98854.09;105164;1257;97931;-63
2023/05/21 07:51:30;;;;;;;7.20;5.30;;;;;;;23.27;57.48;98852.30;105152;1270;98008;-64
2023/05/21 07:54:02;;;;;;;6.70;5.10;;;;;;;23.24;57.16;98852.04;105178;1264;97883;-63
2023/05/21 07:56:31;;;;;;;7.50;5.40;;;;;;;23.21;57.33;98855.71;105169;1268;97791;-63
2023/05/21 07:58:58;;;;;;;7.20;5.90;;;;;;;23.41;56.85;98852.91;104982;1260;98179;-63
2023/05/21 08:01:28;;;;;;;7.30;5.60;;;;;;;23.53;56.49;98854.13;105042;1260;97912;-64
2023/05/21 08:03:55;;;;;;;7.60;5.40;;;;;;;23.67;55.66;98857.81;105040;1260;98011;-63
2023/05/21 08:06:23;;;;;;;6.90;5.60;;;;;;;23.82;55.91;98857.34;104941;1260;99825;-63
2023/05/21 08:08:50;;;;;;;7.00;5.20;;;;;;;24.11;55.44;98853.98;105051;1260;97995;-63
2023/05/21 08:11:17;;;;;;;8.40;5.30;;;;;;;24.34;54.63;98856.04;105039;1261;98578;-63
2023/05/21 08:13:44;;;;;;;7.10;5.50;;;;;;;24.40;53.52;98852.59;104966;1270;97909;-63
2023/05/21 08:16:11;;;;;;;6.50;4.60;;;;;;;24.42;52.79;98850.67;105010;1261;97920;-63
2023/05/21 08:18:38;;;;;;;6.10;5.10;;;;;;;24.40;52.86;98852.75;105098;1254;97901;-64
2023/05/21 08:21:18;;;;;;;5.30;4.50;;;;;;;24.63;53.20;98852.37;104962;1264;110932;-64
2023/05/21 08:23:46;;;;;;;6.30;5.00;;;;;;;24.47;50.17;98849.36;105047;1267;99444;-61
2023/05/21 08:26:15;;;;;;;6.10;4.80;;;;;;;24.29;50.96;98848.29;104985;1260;98000;-64
2023/05/21 08:28:42;;;;;;;6.00;4.60;;;;;;;24.40;50.89;98849.55;104791;1260;99107;-67
2023/05/21 08:31:11;;;;;;;5.60;4.60;;;;;;;24.43;50.34;98851.07;104949;1260;99222;-63
2023/05/21 08:33:38;;;;;;;4.80;4.20;;;;;;;24.41;50.29;98849.40;105083;1260;112247;-64
2023/05/21 08:36:06;;;;;;;6.40;4.80;;;;;;;24.50;49.73;98846.88;105042;1259;97823;-63
2023/05/21 08:38:35;;;;;;;7.30;4.50;;;;;;;24.56;50.47;98848.30;104938;1261;108557;-62
2023/05/21 08:41:06;;;;;;;8.90;4.70;;;;;;;24.83;50.37;98844.38;105083;1261;98039;-62
2023/05/21 08:43:36;;;;;;;5.30;4.50;;;;;;;24.95;49.05;98845.38;104938;1269;98093;-64
2023/05/21 08:46:05;;;;;;;5.10;4.30;;;;;;;24.97;48.12;98836.96;105140;1260;112113;-63
2023/05/21 08:48:33;;;;;;;5.50;4.60;;;;;;;25.04;48.27;98836.38;105143;1254;99577;-62
2023/05/21 08:51:00;;;;;;;7.00;4.20;;;;;;;25.22;48.48;98836.75;104582;1264;107496;-62
2023/05/21 08:53:28;;;;;;;4.50;4.10;;;;;;;25.51;48.16;98836.97;104974;1260;97868;-63
2023/05/21 08:55:56;;;;;;;4.70;4.10;;;;;;;25.86;47.06;98833.36;105012;1261;97893;-63
2023/05/21 08:58:23;;;;;;;4.80;4.30;;;;;;;25.95;46.20;98832.71;105103;1259;112275;-63
2023/05/21 09:00:50;;;;;;;5.80;3.70;;;;;;;25.98;45.79;98831.33;105183;1258;99298;-63
2023/05/21 09:03:17;;;;;;;6.20;3.90;;;;;;;25.85;44.25;98829.67;105120;1254;99211;-63
2023/05/21 09:05:45;;;;;;;4.50;3.50;;;;;;;25.75;44.54;98826.15;105218;1255;99199;-63
2023/05/21 09:08:27;;;;;;;4.10;3.20;;;;;;;25.77;43.71;98826.21;105195;1267;98005;-62
2023/05/21 09:10:54;;;;;;;4.80;3.60;;;;;;;25.58;42.96;98827.30;105212;1258;112161;-63
2023/05/21 09:13:24;;;;;;;4.70;3.40;;;;;;;25.62;43.92;98823.99;105226;1258;97966;-63
2023/05/21 09:15:51;;;;;;;4.80;2.90;;;;;;;25.91;43.23;98828.83;105031;1261;107877;-62
2023/05/21 09:18:18;;;;;;;3.50;3.20;;;;;;;25.78;42.13;98823.32;105202;1266;97931;-63
2023/05/21 09:20:45;;;;;;;5.40;3.20;;;;;;;25.83;43.04;98818.45;105154;1254;97970;-62
2023/05/21 09:23:16;;;;;;;4.90;3.30;;;;;;;26.00;42.80;98819.60;105205;1270;97905;-63
2023/05/21 09:25:48;;;;;;;5.60;3.60;;;;;;;26.10;41.76;98821.75;105205;1254;99167;-63
2023/05/21 09:28:16;;;;;;;5.50;2.90;;;;;;;26.16;41.73;98821.92;104939;1261;107525;-64
2023/05/21 09:30:47;;;;;;;3.60;2.90;;;;;;;26.11;41.44;98819.73;105184;1258;97852;-63
2023/05/21 09:33:25;;;;;;;3.20;2.80;;;;;;;25.98;40.88;98817.60;105045;1259;98072;-64
2023/05/21 09:35:53;;;;;;;5.40;3.00;;;;;;;25.88;41.07;98809.19;105208;1258;112133;-64
2023/05/21 09:38:25;;;;;;;4.20;2.80;;;;;;;26.14;41.25;98813.85;105235;1257;99087;-64
2023/05/21 09:40:57;;;;;;;4.70;2.80;;;;;;;26.26;40.45;98812.77;105184;1257;108948;-63
2023/05/21 09:43:24;;;;;;;3.60;2.50;;;;;;;26.30;40.72;98811.69;104894;1263;99087;-63
2023/05/21 09:45:55;;;;;;;3.30;2.70;;;;;;;26.43;41.13;98808.41;105231;1253;98257;-64
2023/05/21 09:48:33;;;;;;;5.90;2.70;;;;;;;26.35;40.67;98807.31;104845;1260;111234;-63
2023/05/21 09:51:10;;;;;;;7.50;2.60;;;;;;;26.25;40.29;98811.17;106256;1261;99160;-66
2023/05/21 09:53:53;;;;;;;3.90;2.60;;;;;;;26.41;40.53;98806.75;105022;1257;108527;-65
2023/05/21 09:56:29;;;;;;;4.20;3.00;;;;;;;26.57;39.49;98805.79;105012;1259;99106;-63
2023/05/21 09:59:03;;;;;;;3.30;2.40;;;;;;;26.80;39.52;98804.45;105053;1261;98071;-63
2023/05/21 10:01:34;;;;;;;4.30;2.60;;;;;;;26.98;39.03;98802.55;105072;1254;112656;-63
2023/05/21 10:04:06;;;;;;;4.70;2.70;;;;;;;27.05;39.39;98798.69;105110;1269;99228;-63
2023/05/21 10:06:41;;;;;;;4.20;2.60;;;;;;;27.27;38.66;98796.91;105158;1257;108378;-63
2023/05/21 10:09:14;;;;;;;5.70;2.70;;;;;;;27.20;38.21;98797.42;105175;1268;97915;-61
2023/05/21 10:11:43;;;;;;;2.70;2.50;;;;;;;27.07;38.27;98795.36;104948;1267;98069;-62
2023/05/21 10:14:17;;;;;;;4.40;2.60;;;;;;;27.01;38.47;98789.57;105218;1260;112406;-62
2023/05/21 10:16:46;;;;;;;4.80;2.90;;;;;;;27.02;38.27;98794.30;105038;1263;98065;-63
2023/05/21 10:19:15;;;;;;;2.80;2.50;;;;;;;27.16;38.57;98786.95;105013;1254;107727;-63
2023/05/21 10:21:44;;;;;;;3.20;2.70;;;;;;;27.14;37.79;98781.67;105018;1261;98008;-63
2023/05/21 10:24:13;;;;;;;5.30;2.60;;;;;;;27.15;37.50;98782.07;105210;1267;97915;-63
2023/05/21 10:26:40;;;;;;;6.60;2.40;;;;;;;27.20;37.23;98785.62;105242;1258;112923;-63
2023/05/21 10:29:08;;;;;;;7.40;2.70;;;;;;;27.13;36.91;98782.48;105178;1257;98052;-63
2023/05/21 10:31:37;;;;;;;3.70;2.40;;;;;;;27.11;36.66;98780.03;105178;1254;108586;-63
2023/05/21 10:34:05;;;;;;;3.20;2.50;;;;;;;27.21;36.38;98776.27;105064;1261;98239;-63
2023/05/21 10:36:35;;;;;;;3.90;2.80;;;;;;;27.40;35.95;98777.92;105249;1269;98591;-63
2023/05/21 10:39:02;;;;;;;3.10;2.70;;;;;;;27.58;35.84;98765.79;105212;1257;110726;-63
2023/05/21 10:41:50;;;;;;;2.80;2.40;;;;;;;27.59;35.99;98772.88;105163;1256;98001;-63
2023/05/21 10:44:29;;;;;;;4.00;2.30;;;;;;;27.56;35.78;98770.73;105247;1257;108601;-63
2023/05/21 10:47:30;;;;;;;4.30;2.30;;;;;;;27.39;35.99;98771.48;104919;1260;98056;-62
2023/05/21 10:50:20;;;;;;;3.90;2.70;;;;;;;27.21;36.61;98770.88;105188;1254;98619;-62
2023/05/21 10:52:59;;;;;;;3.90;2.30;;;;;;;27.16;36.54;98766.45;105152;1257;112587;-62
2023/05/21 10:55:42;;;;;;;3.70;2.00;;;;;;;27.18;36.42;98770.13;105165;1254;99353;-62
2023/05/21 10:58:28;;;;;;;2.40;2.00;;;;;;;27.35;35.14;98766.73;105012;1254;108738;-63
2023/05/21 11:00:58;;;;;;;3.70;2.50;;;;;;;27.44;34.54;98772.39;105143;1265;98093;-63
2023/05/21 11:03:25;;;;;;;3.20;2.50;;;;;;;27.73;34.28;98769.74;104877;1269;97915;-63
2023/05/21 11:05:54;;;;;;;3.00;2.30;;;;;;;27.77;33.62;98769.35;105206;1268;112294;-63
2023/05/21 11:08:36;;;;;;;3.20;2.00;;;;;;;27.47;33.87;98770.71;105205;1258;99520;-63
2023/05/21 11:11:04;;;;;;;3.40;2.60;;;;;;;27.48;34.68;98766.77;104976;1267;108339;-63
2023/05/21 11:13:48;;;;;;;3.00;2.30;;;;;;;27.61;33.89;98762.22;104977;1262;99164;-64
2023/05/21 11:16:16;;;;;;;2.80;2.00;;;;;;;27.53;33.88;98754.38;104853;1267;97912;-64
2023/05/21 11:18:43;;;;;;;3.50;2.10;;;;;;;27.57;33.71;98757.70;105189;1258;112123;-63
2023/05/21 11:21:13;;;;;;;3.30;2.00;;;;;;;27.82;33.45;98757.61;105145;1257;97890;-63
2023/05/21 11:24:00;;;;;;;3.40;2.10;;;;;;;28.07;33.26;98761.09;105083;1257;108572;-63